^^
Saratoga-Weather Station Historical Data
Daily Summary for April 5, 2020 Units:  Both    English   Metric
Daily Weekly Monthly Yearly Custom
  High: Low: Average:
Temperature: 49.8 °F /  9.9 °C 36.9 °F /  2.7 °C 41.2 °F /  5.1 °C
Dew Point: 42.4 °F /  5.8 °C 35.2 °F /  1.8 °C 37.9 °F /  3.3 °C
Humidity: 95% 72% 89%
Wind Speed: 4.9mph /  7.9km/h - 0.7mph /  1.1km/h
Wind Gust: 9mph /  14.5km/h - -
Wind- - SSW
Pressure: 30.7 in /  1038.3 hPa 30.6 in /  1034.5 hPa -
Precipitation: 0.01 in /  0.2 mm    
Historical Graphs
 
 
Tabular Data for April 5, 2020
Time Temperature Dew Point Pressure Wind Wind Speed Wind Gust Humidity Rainfall Rate (Hourly) solar
00:02 39.4 °F /  4.1 °C 37.6 °F /  3.1 °C 30.6in /  1036.2hPa Calm   2mph /  3.2km/h 93% 0in /  0.0mm 0 W/m2
00:07 39.4 °F /  4.1 °C 37.6 °F /  3.1 °C 30.6in /  1036.2hPa WNW 0.9mph /  1.4km/h 1mph /  1.6km/h 93% 0in /  0.0mm 0 W/m2
00:12 39.2 °F /  4 °C 37.4 °F /  3 °C 30.6in /  1036.2hPa Calm   3mph /  4.8km/h 93% 0in /  0.0mm 0 W/m2
00:17 39.4 °F /  4.1 °C 37.6 °F /  3.1 °C 30.6in /  1036.2hPa SW 0.9mph /  1.4km/h 2mph /  3.2km/h 93% 0in /  0.0mm 0 W/m2
00:22 39.4 °F /  4.1 °C 37.6 °F /  3.1 °C 30.6in /  1036.2hPa SW 0.9mph /  1.4km/h 1mph /  1.6km/h 93% 0in /  0.0mm 0 W/m2
00:27 39.4 °F /  4.1 °C 37.6 °F /  3.1 °C 30.6in /  1036.2hPa Calm     93% 0in /  0.0mm 0 W/m2
00:32 39.2 °F /  4 °C 37.4 °F /  3 °C 30.6in /  1036.2hPa SW 2mph /  3.2km/h 2mph /  3.2km/h 93% 0in /  0.0mm 0 W/m2
00:37 39 °F /  3.9 °C 37.2 °F /  2.9 °C 30.6in /  1036.2hPa Calm   1mph /  1.6km/h 93% 0in /  0.0mm 0 W/m2
00:42 39 °F /  3.9 °C 37.2 °F /  2.9 °C 30.6in /  1036.2hPa Calm     93% 0in /  0.0mm 0 W/m2
00:47 39 °F /  3.9 °C 37.2 °F /  2.9 °C 30.6in /  1036.2hPa Calm     93% 0in /  0.0mm 0 W/m2
00:52 38.8 °F /  3.8 °C 37 °F /  2.8 °C 30.6in /  1036.2hPa Calm   1mph /  1.6km/h 93% 0in /  0.0mm 0 W/m2
00:57 38.8 °F /  3.8 °C 37 °F /  2.8 °C 30.6in /  1036.2hPa Calm   1mph /  1.6km/h 93% 0in /  0.0mm 0 W/m2
01:02 38.8 °F /  3.8 °C 37 °F /  2.8 °C 30.6in /  1036.2hPa Calm     93% 0in /  0.0mm 0 W/m2
01:07 38.8 °F /  3.8 °C 37 °F /  2.8 °C 30.6in /  1036.6hPa Calm     93% 0in /  0.0mm 0 W/m2
01:12 38.8 °F /  3.8 °C 37 °F /  2.8 °C 30.6in /  1036.6hPa SW 0.9mph /  1.4km/h 2mph /  3.2km/h 93% 0in /  0.0mm 0 W/m2
01:17 38.8 °F /  3.8 °C 37 °F /  2.8 °C 30.6in /  1036.6hPa SW 2mph /  3.2km/h 3mph /  4.8km/h 93% 0in /  0.0mm 0 W/m2
01:22 38.8 °F /  3.8 °C 37 °F /  2.8 °C 30.6in /  1036.6hPa Calm   2mph /  3.2km/h 93% 0in /  0.0mm 0 W/m2
01:27 38.8 °F /  3.8 °C 37 °F /  2.8 °C 30.6in /  1036.6hPa SW 0.9mph /  1.4km/h 3mph /  4.8km/h 93% 0in /  0.0mm 0 W/m2
01:32 38.7 °F /  3.7 °C 36.9 °F /  2.7 °C 30.6in /  1036.6hPa Calm   3mph /  4.8km/h 93% 0in /  0.0mm 0 W/m2
01:37 38.7 °F /  3.7 °C 36.9 °F /  2.7 °C 30.6in /  1036.6hPa Calm   1mph /  1.6km/h 93% 0in /  0.0mm 0 W/m2
01:42 38.7 °F /  3.7 °C 36.9 °F /  2.7 °C 30.6in /  1036.6hPa WSW 0.9mph /  1.4km/h 2mph /  3.2km/h 93% 0in /  0.0mm 0 W/m2
01:47 38.7 °F /  3.7 °C 37 °F /  2.8 °C 30.6in /  1036.6hPa Calm   2mph /  3.2km/h 94% 0in /  0.0mm 0 W/m2
01:52 38.5 °F /  3.6 °C 36.9 °F /  2.7 °C 30.6in /  1036.6hPa Calm     94% 0in /  0.0mm 0 W/m2
01:57 38.3 °F /  3.5 °C 36.5 °F /  2.5 °C 30.6in /  1036.6hPa WSW 0.9mph /  1.4km/h 2mph /  3.2km/h 93% 0in /  0.0mm 0 W/m2
02:02 38.1 °F /  3.4 °C 36.3 °F /  2.4 °C 30.6in /  1036.6hPa WSW 0.9mph /  1.4km/h 2mph /  3.2km/h 93% 0in /  0.0mm 0 W/m2
02:07 37.9 °F /  3.3 °C 36.1 °F /  2.3 °C 30.6in /  1036.6hPa Calm   1mph /  1.6km/h 93% 0in /  0.0mm 0 W/m2
02:12 37.8 °F /  3.2 °C 36.1 °F /  2.3 °C 30.6in /  1036.6hPa WSW 0.9mph /  1.4km/h 1mph /  1.6km/h 94% 0in /  0.0mm 0 W/m2
02:17 37.8 °F /  3.2 °C 36 °F /  2.2 °C 30.6in /  1036.6hPa WSW 2mph /  3.2km/h 2mph /  3.2km/h 93% 0in /  0.0mm 0 W/m2
02:22 37.6 °F /  3.1 °C 35.8 °F /  2.1 °C 30.6in /  1036.6hPa SW 0.9mph /  1.4km/h 2mph /  3.2km/h 93% 0in /  0.0mm 0 W/m2
02:27 37.4 °F /  3 °C 35.8 °F /  2.1 °C 30.6in /  1036.2hPa Calm   1mph /  1.6km/h 94% 0in /  0.0mm 0 W/m2
02:32 37.4 °F /  3 °C 35.8 °F /  2.1 °C 30.6in /  1036.6hPa Calm   2mph /  3.2km/h 94% 0in /  0.0mm 0 W/m2
02:37 37.2 °F /  2.9 °C 35.6 °F /  2 °C 30.6in /  1036.6hPa Calm     94% 0in /  0.0mm 0 W/m2
02:42 37.2 °F /  2.9 °C 35.6 °F /  2 °C 30.6in /  1036.6hPa Calm   2mph /  3.2km/h 94% 0in /  0.0mm 0 W/m2
02:47 37.2 °F /  2.9 °C 35.6 °F /  2 °C 30.6in /  1036.6hPa Calm     94% 0in /  0.0mm 0 W/m2
02:52 37.4 °F /  3 °C 35.8 °F /  2.1 °C 30.6in /  1036.6hPa Calm   2mph /  3.2km/h 94% 0in /  0.0mm 0 W/m2
02:57 37.6 °F /  3.1 °C 36 °F /  2.2 °C 30.6in /  1036.6hPa Calm   1mph /  1.6km/h 94% 0in /  0.0mm 0 W/m2
03:03 37.4 °F /  3 °C 35.8 °F /  2.1 °C 30.6in /  1036.6hPa WSW 0.9mph /  1.4km/h 3mph /  4.8km/h 94% 0in /  0.0mm 0 W/m2
03:08 37.4 °F /  3 °C 35.8 °F /  2.1 °C 30.6in /  1036.6hPa Calm   1mph /  1.6km/h 94% 0in /  0.0mm 0 W/m2
03:13 37.2 °F /  2.9 °C 35.6 °F /  2 °C 30.6in /  1036.6hPa Calm     94% 0in /  0.0mm 0 W/m2
03:18 37.4 °F /  3 °C 36.1 °F /  2.3 °C 30.6in /  1036.6hPa Calm     95% 0in /  0.0mm 0 W/m2
03:23 37.6 °F /  3.1 °C 36.3 °F /  2.4 °C 30.6in /  1036.9hPa Calm   1mph /  1.6km/h 95% 0in /  0.0mm 0 W/m2
03:28 37.4 °F /  3 °C 35.8 °F /  2.1 °C 30.6in /  1036.9hPa Calm   2mph /  3.2km/h 94% 0in /  0.0mm 0 W/m2
03:33 37.2 °F /  2.9 °C 36 °F /  2.2 °C 30.6in /  1036.9hPa WSW 0.9mph /  1.4km/h 1mph /  1.6km/h 95% 0in /  0.0mm 0 W/m2
03:38 37.2 °F /  2.9 °C 36 °F /  2.2 °C 30.6in /  1036.9hPa Calm   3mph /  4.8km/h 95% 0in /  0.0mm 0 W/m2
03:43 37.4 °F /  3 °C 36.1 °F /  2.3 °C 30.6in /  1036.9hPa Calm   2mph /  3.2km/h 95% 0in /  0.0mm 0 W/m2
03:48 37.6 °F /  3.1 °C 36.3 °F /  2.4 °C 30.6in /  1036.6hPa South 0.9mph /  1.4km/h 3mph /  4.8km/h 95% 0in /  0.0mm 0 W/m2
03:53 37.6 °F /  3.1 °C 36.3 °F /  2.4 °C 30.6in /  1036.6hPa South 0.9mph /  1.4km/h 2mph /  3.2km/h 95% 0in /  0.0mm 0 W/m2
03:58 37.6 °F /  3.1 °C 36.3 °F /  2.4 °C 30.6in /  1036.6hPa Calm   1mph /  1.6km/h 95% 0in /  0.0mm 0 W/m2
04:03 37.4 °F /  3 °C 36.1 °F /  2.3 °C 30.6in /  1036.6hPa South 0.9mph /  1.4km/h 1mph /  1.6km/h 95% 0in /  0.0mm 0 W/m2
04:08 37.2 °F /  2.9 °C 36 °F /  2.2 °C 30.6in /  1036.6hPa Calm   2mph /  3.2km/h 95% 0in /  0.0mm 0 W/m2
04:13 37 °F /  2.8 °C 35.4 °F /  1.9 °C 30.6in /  1036.6hPa Calm     94% 0in /  0.0mm 0 W/m2
04:18 36.9 °F /  2.7 °C 35.2 °F /  1.8 °C 30.6in /  1036.6hPa Calm   2mph /  3.2km/h 94% 0in /  0.0mm 0 W/m2
04:23 36.9 °F /  2.7 °C 35.6 °F /  2 °C 30.6in /  1036.6hPa Calm     95% 0in /  0.0mm 0 W/m2
04:28 36.9 °F /  2.7 °C 35.6 °F /  2 °C 30.6in /  1036.6hPa South 0.9mph /  1.4km/h 1mph /  1.6km/h 95% 0in /  0.0mm 0 W/m2
04:33 36.9 °F /  2.7 °C 35.6 °F /  2 °C 30.6in /  1036.6hPa Calm   2mph /  3.2km/h 95% 0in /  0.0mm 0 W/m2
04:38 36.9 °F /  2.7 °C 35.6 °F /  2 °C 30.6in /  1036.6hPa Calm     95% 0in /  0.0mm 0 W/m2
04:43 37 °F /  2.8 °C 35.8 °F /  2.1 °C 30.6in /  1036.6hPa SSW 2.9mph /  4.7km/h 3mph /  4.8km/h 95% 0in /  0.0mm 0 W/m2
04:48 37.2 °F /  2.9 °C 36 °F /  2.2 °C 30.6in /  1036.9hPa SSW 0.9mph /  1.4km/h 2mph /  3.2km/h 95% 0in /  0.0mm 0 W/m2
04:53 37.2 °F /  2.9 °C 36 °F /  2.2 °C 30.6in /  1036.9hPa Calm   3mph /  4.8km/h 95% 0in /  0.0mm 0 W/m2
04:58 37 °F /  2.8 °C 35.8 °F /  2.1 °C 30.6in /  1036.9hPa SSW 0.9mph /  1.4km/h 2mph /  3.2km/h 95% 0in /  0.0mm 0 W/m2
05:03 37 °F /  2.8 °C 35.8 °F /  2.1 °C 30.6in /  1037.2hPa Calm   2mph /  3.2km/h 95% 0in /  0.0mm 0 W/m2
05:09 37.2 °F /  2.9 °C 36 °F /  2.2 °C 30.6in /  1037.2hPa Calm   3mph /  4.8km/h 95% 0in /  0.0mm 0 W/m2
05:14 37.2 °F /  2.9 °C 36 °F /  2.2 °C 30.6in /  1037.2hPa SW 2mph /  3.2km/h 2mph /  3.2km/h 95% 0in /  0.0mm 0 W/m2
05:19 37.2 °F /  2.9 °C 36 °F /  2.2 °C 30.6in /  1037.2hPa WSW 0.9mph /  1.4km/h 2mph /  3.2km/h 95% 0in /  0.0mm 0 W/m2
05:24 37.2 °F /  2.9 °C 36 °F /  2.2 °C 30.6in /  1037.2hPa Calm   2mph /  3.2km/h 95% 0in /  0.0mm 0 W/m2
05:29 37.4 °F /  3 °C 36.1 °F /  2.3 °C 30.6in /  1037.2hPa Calm   2mph /  3.2km/h 95% 0in /  0.0mm 0 W/m2
05:34 37.6 °F /  3.1 °C 36.3 °F /  2.4 °C 30.6in /  1037.2hPa West 0.9mph /  1.4km/h 2mph /  3.2km/h 95% 0in /  0.0mm 0 W/m2
05:39 37.6 °F /  3.1 °C 36.3 °F /  2.4 °C 30.6in /  1037.2hPa West 2mph /  3.2km/h 2mph /  3.2km/h 95% 0in /  0.0mm 0 W/m2
05:44 37.4 °F /  3 °C 36.1 °F /  2.3 °C 30.6in /  1037.2hPa Calm   1mph /  1.6km/h 95% 0in /  0.0mm 0 W/m2
05:49 37.2 °F /  2.9 °C 36 °F /  2.2 °C 30.6in /  1037.2hPa WSW 0.9mph /  1.4km/h 2mph /  3.2km/h 95% 0in /  0.0mm 0 W/m2
05:54 37.4 °F /  3 °C 36.1 °F /  2.3 °C 30.6in /  1037.2hPa NW 0.9mph /  1.4km/h 1mph /  1.6km/h 95% 0in /  0.0mm 0 W/m2
05:59 37.4 °F /  3 °C 36.1 °F /  2.3 °C 30.6in /  1037.2hPa North 2mph /  3.2km/h 4mph /  6.4km/h 95% 0in /  0.0mm 0 W/m2
06:04 37.6 °F /  3.1 °C 36.3 °F /  2.4 °C 30.6in /  1037.2hPa Calm     95% 0in /  0.0mm 0 W/m2
06:09 37.4 °F /  3 °C 36.1 °F /  2.3 °C 30.6in /  1037.2hPa West 0.9mph /  1.4km/h 2mph /  3.2km/h 95% 0.01in /  0.2mm 0 W/m2
06:14 37.2 °F /  2.9 °C 36 °F /  2.2 °C 30.6in /  1037.2hPa Calm     95% 0.01in /  0.2mm 0 W/m2
06:19 37.2 °F /  2.9 °C 36 °F /  2.2 °C 30.6in /  1037.2hPa West 0.9mph /  1.4km/h 2mph /  3.2km/h 95% 0.01in /  0.2mm 0 W/m2
06:24 37.2 °F /  2.9 °C 36 °F /  2.2 °C 30.6in /  1037.2hPa Calm   2mph /  3.2km/h 95% 0.01in /  0.2mm 0 W/m2
06:29 37.4 °F /  3 °C 36.1 °F /  2.3 °C 30.6in /  1037.2hPa Calm   1mph /  1.6km/h 95% 0.01in /  0.2mm 0 W/m2
06:34 37.6 °F /  3.1 °C 36.3 °F /  2.4 °C 30.6in /  1037.2hPa NE 0.9mph /  1.4km/h 2mph /  3.2km/h 95% 0.01in /  0.2mm 0 W/m2
06:39 37.6 °F /  3.1 °C 36.3 °F /  2.4 °C 30.6in /  1037.2hPa Calm   2mph /  3.2km/h 95% 0.01in /  0.2mm 0 W/m2
06:44 37.6 °F /  3.1 °C 36.3 °F /  2.4 °C 30.6in /  1037.2hPa Calm   2mph /  3.2km/h 95% 0.01in /  0.2mm 0 W/m2
06:49 37.6 °F /  3.1 °C 36.3 °F /  2.4 °C 30.6in /  1037.2hPa Calm   1mph /  1.6km/h 95% 0.01in /  0.2mm 0 W/m2
06:54 37.2 °F /  2.9 °C 36 °F /  2.2 °C 30.6in /  1037.2hPa Calm   2mph /  3.2km/h 95% 0.01in /  0.2mm 0 W/m2
06:59 37 °F /  2.8 °C 35.8 °F /  2.1 °C 30.6in /  1037.2hPa NW 0.9mph /  1.4km/h 2mph /  3.2km/h 95% 0.01in /  0.2mm 0 W/m2
07:04 37 °F /  2.8 °C 35.8 °F /  2.1 °C 30.6in /  1037.2hPa South 0.9mph /  1.4km/h 1mph /  1.6km/h 95% 0in /  0.0mm 0 W/m2
07:09 37 °F /  2.8 °C 35.8 °F /  2.1 °C 30.6in /  1037.2hPa Calm     95% 0in /  0.0mm 0 W/m2
07:14 36.9 °F /  2.7 °C 35.6 °F /  2 °C 30.6in /  1037.2hPa NNE 0.9mph /  1.4km/h 2mph /  3.2km/h 95% 0in /  0.0mm 0 W/m2
07:19 37 °F /  2.8 °C 35.8 °F /  2.1 °C 30.6in /  1037.2hPa Calm     95% 0in /  0.0mm 0 W/m2
07:24 37 °F /  2.8 °C 35.8 °F /  2.1 °C 30.6in /  1037.6hPa Calm   4mph /  6.4km/h 95% 0in /  0.0mm 0 W/m2
07:29 37 °F /  2.8 °C 35.8 °F /  2.1 °C 30.6in /  1037.6hPa Calm   2mph /  3.2km/h 95% 0in /  0.0mm 5 W/m2
07:34 37 °F /  2.8 °C 35.8 °F /  2.1 °C 30.6in /  1037.6hPa Calm   4mph /  6.4km/h 95% 0in /  0.0mm 5 W/m2
07:39 37 °F /  2.8 °C 35.8 °F /  2.1 °C 30.6in /  1037.6hPa SW 0.9mph /  1.4km/h 2mph /  3.2km/h 95% 0in /  0.0mm 9 W/m2
07:44 37 °F /  2.8 °C 35.8 °F /  2.1 °C 30.7in /  1037.9hPa Calm   2mph /  3.2km/h 95% 0in /  0.0mm 11 W/m2
07:49 37 °F /  2.8 °C 35.8 °F /  2.1 °C 30.7in /  1037.9hPa Calm     95% 0in /  0.0mm 14 W/m2
07:54 37 °F /  2.8 °C 35.8 °F /  2.1 °C 30.7in /  1037.9hPa North 0.9mph /  1.4km/h 4mph /  6.4km/h 95% 0in /  0.0mm 18 W/m2
07:59 37.2 °F /  2.9 °C 36 °F /  2.2 °C 30.7in /  1037.9hPa East 0.9mph /  1.4km/h 3mph /  4.8km/h 95% 0in /  0.0mm 19 W/m2
08:04 37.2 °F /  2.9 °C 36 °F /  2.2 °C 30.7in /  1037.9hPa South 0.9mph /  1.4km/h 2mph /  3.2km/h 95% 0in /  0.0mm 21 W/m2
08:09 37.2 °F /  2.9 °C 36 °F /  2.2 °C 30.7in /  1037.9hPa WNW 0.9mph /  1.4km/h 3mph /  4.8km/h 95% 0in /  0.0mm 25 W/m2
08:14 37.2 °F /  2.9 °C 36 °F /  2.2 °C 30.7in /  1037.9hPa Calm     95% 0in /  0.0mm 25 W/m2
08:19 37.2 °F /  2.9 °C 36 °F /  2.2 °C 30.7in /  1037.9hPa Calm     95% 0in /  0.0mm 28 W/m2
08:24 37.2 °F /  2.9 °C 36 °F /  2.2 °C 30.7in /  1037.9hPa Calm   1mph /  1.6km/h 95% 0in /  0.0mm 37 W/m2
08:29 37.2 °F /  2.9 °C 36 °F /  2.2 °C 30.7in /  1037.9hPa Calm     95% 0in /  0.0mm 32 W/m2
08:34 37.2 °F /  2.9 °C 36 °F /  2.2 °C 30.7in /  1037.9hPa Calm     95% 0in /  0.0mm 33 W/m2
08:39 37.2 °F /  2.9 °C 36 °F /  2.2 °C 30.7in /  1037.9hPa Calm     95% 0in /  0.0mm 37 W/m2
08:44 37.2 °F /  2.9 °C 36 °F /  2.2 °C 30.7in /  1037.9hPa Calm     95% 0in /  0.0mm 40 W/m2
08:49 37.4 °F /  3 °C 36.1 °F /  2.3 °C 30.7in /  1037.9hPa Calm     95% 0in /  0.0mm 56 W/m2
08:54 37.4 °F /  3 °C 36.1 °F /  2.3 °C 30.7in /  1037.9hPa Calm   2mph /  3.2km/h 95% 0in /  0.0mm 69 W/m2
08:59 37.8 °F /  3.2 °C 36.5 °F /  2.5 °C 30.7in /  1037.9hPa Calm   1mph /  1.6km/h 95% 0in /  0.0mm 60 W/m2
09:04 37.8 °F /  3.2 °C 36.5 °F /  2.5 °C 30.7in /  1037.9hPa Calm     95% 0in /  0.0mm 72 W/m2
09:09 37.9 °F /  3.3 °C 36.7 °F /  2.6 °C 30.7in /  1037.9hPa Calm   2mph /  3.2km/h 95% 0in /  0.0mm 44 W/m2
09:14 37.9 °F /  3.3 °C 36.7 °F /  2.6 °C 30.7in /  1037.9hPa Calm     95% 0in /  0.0mm 69 W/m2
09:19 38.1 °F /  3.4 °C 36.9 °F /  2.7 °C 30.7in /  1037.9hPa Calm     95% 0in /  0.0mm 111 W/m2
09:24 38.3 °F /  3.5 °C 37 °F /  2.8 °C 30.7in /  1038.3hPa Calm   1mph /  1.6km/h 95% 0in /  0.0mm 90 W/m2
09:29 38.5 °F /  3.6 °C 37.2 °F /  2.9 °C 30.7in /  1038.3hPa Calm   1mph /  1.6km/h 95% 0in /  0.0mm 79 W/m2
09:34 38.7 °F /  3.7 °C 37.4 °F /  3 °C 30.7in /  1037.9hPa Calm   3mph /  4.8km/h 95% 0in /  0.0mm 83 W/m2
09:40 39 °F /  3.9 °C 37.8 °F /  3.2 °C 30.7in /  1037.9hPa Calm   1mph /  1.6km/h 95% 0in /  0.0mm 54 W/m2
09:45 39 °F /  3.9 °C 37.8 °F /  3.2 °C 30.7in /  1037.9hPa SSE 0.9mph /  1.4km/h 1mph /  1.6km/h 95% 0in /  0.0mm 46 W/m2
09:50 39 °F /  3.9 °C 37.4 °F /  3 °C 30.7in /  1038.3hPa Calm   1mph /  1.6km/h 94% 0in /  0.0mm 44 W/m2
09:55 39.2 °F /  4 °C 37.6 °F /  3.1 °C 30.7in /  1038.3hPa Calm   1mph /  1.6km/h 94% 0in /  0.0mm 47 W/m2
10:00 39.4 °F /  4.1 °C 37.8 °F /  3.2 °C 30.7in /  1038.3hPa Calm     94% 0in /  0.0mm 53 W/m2
10:05 39.4 °F /  4.1 °C 37.8 °F /  3.2 °C 30.7in /  1038.3hPa Calm   2mph /  3.2km/h 94% 0in /  0.0mm 53 W/m2
10:10 39.6 °F /  4.2 °C 37.9 °F /  3.3 °C 30.7in /  1038.3hPa East 0.9mph /  1.4km/h 1mph /  1.6km/h 94% 0in /  0.0mm 53 W/m2
10:15 39.7 °F /  4.3 °C 38.1 °F /  3.4 °C 30.7in /  1038.3hPa Calm   2mph /  3.2km/h 94% 0in /  0.0mm 53 W/m2
10:20 40.1 °F /  4.5 °C 38.5 °F /  3.6 °C 30.7in /  1038.3hPa Calm   1mph /  1.6km/h 94% 0in /  0.0mm 58 W/m2
10:25 40.3 °F /  4.6 °C 38.7 °F /  3.7 °C 30.7in /  1038.3hPa NE 0.9mph /  1.4km/h 3mph /  4.8km/h 94% 0in /  0.0mm 67 W/m2
10:30 40.6 °F /  4.8 °C 38.8 °F /  3.8 °C 30.7in /  1038.3hPa East 2.9mph /  4.7km/h 7mph /  11.3km/h 93% 0in /  0.0mm 62 W/m2
10:35 41 °F /  5 °C 39.2 °F /  4 °C 30.7in /  1038.3hPa ESE 0.9mph /  1.4km/h 4mph /  6.4km/h 93% 0in /  0.0mm 51 W/m2
10:40 41.5 °F /  5.3 °C 39.7 °F /  4.3 °C 30.7in /  1038.3hPa ENE 2mph /  3.2km/h 7mph /  11.3km/h 93% 0in /  0.0mm 47 W/m2
10:45 41.9 °F /  5.5 °C 39.7 °F /  4.3 °C 30.7in /  1038.3hPa NE 2mph /  3.2km/h 3mph /  4.8km/h 92% 0in /  0.0mm 47 W/m2
10:50 42.3 °F /  5.7 °C 39.7 °F /  4.3 °C 30.7in /  1038.3hPa East 4mph /  6.4km/h 5mph /  8km/h 91% 0in /  0.0mm 49 W/m2
10:55 42.4 °F /  5.8 °C 39.9 °F /  4.4 °C 30.7in /  1038.3hPa Calm   3mph /  4.8km/h 91% 0in /  0.0mm 60 W/m2
11:00 42.6 °F /  5.9 °C 39.9 °F /  4.4 °C 30.7in /  1038.3hPa East 2.9mph /  4.7km/h 3mph /  4.8km/h 90% 0in /  0.0mm 53 W/m2
11:05 43 °F /  6.1 °C 40.3 °F /  4.6 °C 30.7in /  1038.3hPa SE 2mph /  3.2km/h 4mph /  6.4km/h 90% 0in /  0.0mm 49 W/m2
11:10 43.2 °F /  6.2 °C 40.1 °F /  4.5 °C 30.7in /  1038.3hPa ENE 0.9mph /  1.4km/h 4mph /  6.4km/h 89% 0in /  0.0mm 46 W/m2
11:15 43.5 °F /  6.4 °C 40.5 °F /  4.7 °C 30.7in /  1038.3hPa NW 2mph /  3.2km/h 3mph /  4.8km/h 89% 0in /  0.0mm 47 W/m2
11:20 43.9 °F /  6.6 °C 40.6 °F /  4.8 °C 30.7in /  1038.3hPa Calm   4mph /  6.4km/h 88% 0in /  0.0mm 46 W/m2
11:25 44.1 °F /  6.7 °C 40.5 °F /  4.7 °C 30.7in /  1038.3hPa Calm   2mph /  3.2km/h 87% 0in /  0.0mm 46 W/m2
11:30 44.2 °F /  6.8 °C 40.3 °F /  4.6 °C 30.7in /  1037.9hPa ENE 2.9mph /  4.7km/h 4mph /  6.4km/h 86% 0in /  0.0mm 47 W/m2
11:35 44.4 °F /  6.9 °C 40.5 °F /  4.7 °C 30.7in /  1037.9hPa Calm   2mph /  3.2km/h 86% 0in /  0.0mm 49 W/m2
11:40 44.8 °F /  7.1 °C 40.5 °F /  4.7 °C 30.7in /  1037.9hPa North 4.9mph /  7.9km/h 5mph /  8km/h 85% 0in /  0.0mm 49 W/m2
11:45 45 °F /  7.2 °C 40.6 °F /  4.8 °C 30.7in /  1037.9hPa NE 2mph /  3.2km/h 4mph /  6.4km/h 85% 0in /  0.0mm 60 W/m2
11:50 45.1 °F /  7.3 °C 40.6 °F /  4.8 °C 30.6in /  1037.6hPa North 2mph /  3.2km/h 4mph /  6.4km/h 84% 0in /  0.0mm 197 W/m2
11:55 45.1 °F /  7.3 °C 40.6 °F /  4.8 °C 30.6in /  1037.6hPa NW 2mph /  3.2km/h 2mph /  3.2km/h 84% 0in /  0.0mm 135 W/m2
12:00 45.3 °F /  7.4 °C 40.8 °F /  4.9 °C 30.6in /  1037.6hPa SE 0.9mph /  1.4km/h 2mph /  3.2km/h 84% 0in /  0.0mm 116 W/m2
12:05 45.7 °F /  7.6 °C 40.8 °F /  4.9 °C 30.6in /  1037.6hPa Calm   3mph /  4.8km/h 83% 0in /  0.0mm 62 W/m2
12:10 45.7 °F /  7.6 °C 40.8 °F /  4.9 °C 30.6in /  1037.2hPa ENE 0.9mph /  1.4km/h 4mph /  6.4km/h 83% 0in /  0.0mm 53 W/m2
12:15 46 °F /  7.8 °C 41.2 °F /  5.1 °C 30.6in /  1037.2hPa NNW 0.9mph /  1.4km/h 3mph /  4.8km/h 83% 0in /  0.0mm 47 W/m2
12:20 46 °F /  7.8 °C 40.8 °F /  4.9 °C 30.6in /  1037.2hPa ESE 4mph /  6.4km/h 6mph /  9.7km/h 82% 0in /  0.0mm 44 W/m2
12:25 46.2 °F /  7.9 °C 41 °F /  5 °C 30.6in /  1037.2hPa East 2.9mph /  4.7km/h 3mph /  4.8km/h 82% 0in /  0.0mm 46 W/m2
12:30 46.4 °F /  8 °C 40.8 °F /  4.9 °C 30.6in /  1036.9hPa Calm   1mph /  1.6km/h 81% 0in /  0.0mm 47 W/m2
12:35 46.6 °F /  8.1 °C 41 °F /  5 °C 30.6in /  1036.9hPa Calm   2mph /  3.2km/h 81% 0in /  0.0mm 47 W/m2
12:40 46.8 °F /  8.2 °C 41.2 °F /  5.1 °C 30.6in /  1036.9hPa ESE 2.9mph /  4.7km/h 4mph /  6.4km/h 81% 0in /  0.0mm 46 W/m2
12:45 46.9 °F /  8.3 °C 41.2 °F /  5.1 °C 30.6in /  1036.9hPa NE 4mph /  6.4km/h 5mph /  8km/h 80% 0in /  0.0mm 47 W/m2
12:50 47.1 °F /  8.4 °C 41.4 °F /  5.2 °C 30.6in /  1036.9hPa Calm   3mph /  4.8km/h 80% 0in /  0.0mm 60 W/m2
12:55 47.1 °F /  8.4 °C 41 °F /  5 °C 30.6in /  1036.9hPa Calm   3mph /  4.8km/h 79% 0in /  0.0mm 47 W/m2
13:00 47.5 °F /  8.6 °C 41.4 °F /  5.2 °C 30.6in /  1036.6hPa NW 2.9mph /  4.7km/h 6mph /  9.7km/h 79% 0in /  0.0mm 67 W/m2
13:06 47.7 °F /  8.7 °C 41.5 °F /  5.3 °C 30.6in /  1036.6hPa SSW 0.9mph /  1.4km/h 3mph /  4.8km/h 79% 0in /  0.0mm 95 W/m2
13:11 47.7 °F /  8.7 °C 41.5 °F /  5.3 °C 30.6in /  1036.6hPa NE 4mph /  6.4km/h 5mph /  8km/h 79% 0in /  0.0mm 56 W/m2
13:16 47.8 °F /  8.8 °C 41.4 °F /  5.2 °C 30.6in /  1036.6hPa North 0.9mph /  1.4km/h 2mph /  3.2km/h 78% 0in /  0.0mm 67 W/m2
13:21 48 °F /  8.9 °C 41.5 °F /  5.3 °C 30.6in /  1036.6hPa Calm   5mph /  8km/h 78% 0in /  0.0mm 65 W/m2
13:26 48 °F /  8.9 °C 41.9 °F /  5.5 °C 30.6in /  1036.6hPa ENE 2.9mph /  4.7km/h 3mph /  4.8km/h 79% 0in /  0.0mm 58 W/m2
13:31 48.4 °F /  9.1 °C 42.3 °F /  5.7 °C 30.6in /  1036.6hPa East 2mph /  3.2km/h 4mph /  6.4km/h 79% 0in /  0.0mm 53 W/m2
13:36 48.6 °F /  9.2 °C 42.1 °F /  5.6 °C 30.6in /  1036.6hPa ENE 4.9mph /  7.9km/h 6mph /  9.7km/h 78% 0in /  0.0mm 67 W/m2
13:41 48.6 °F /  9.2 °C 42.1 °F /  5.6 °C 30.6in /  1036.6hPa Calm   2mph /  3.2km/h 78% 0in /  0.0mm 70 W/m2
13:46 48.7 °F /  9.3 °C 42.3 °F /  5.7 °C 30.6in /  1036.2hPa NW 0.9mph /  1.4km/h 5mph /  8km/h 78% 0in /  0.0mm 53 W/m2
13:51 48.9 °F /  9.4 °C 42.4 °F /  5.8 °C 30.6in /  1036.2hPa NE 2.9mph /  4.7km/h 6mph /  9.7km/h 78% 0in /  0.0mm 62 W/m2
13:56 48.9 °F /  9.4 °C 42.1 °F /  5.6 °C 30.6in /  1036.2hPa WNW 0.9mph /  1.4km/h 4mph /  6.4km/h 77% 0in /  0.0mm 47 W/m2
14:01 49.3 °F /  9.6 °C 42.4 °F /  5.8 °C 30.6in /  1036.2hPa East 0.9mph /  1.4km/h 6mph /  9.7km/h 77% 0in /  0.0mm 47 W/m2
14:06 49.3 °F /  9.6 °C 42.1 °F /  5.6 °C 30.6in /  1036.2hPa WSW 2mph /  3.2km/h 5mph /  8km/h 76% 0in /  0.0mm 47 W/m2
14:11 49.3 °F /  9.6 °C 42.4 °F /  5.8 °C 30.6in /  1036.2hPa NNW 2mph /  3.2km/h 7mph /  11.3km/h 77% 0in /  0.0mm 46 W/m2
14:16 49.5 °F /  9.7 °C 42.3 °F /  5.7 °C 30.6in /  1036.2hPa Calm   5mph /  8km/h 76% 0in /  0.0mm 42 W/m2
14:21 49.5 °F /  9.7 °C 42.3 °F /  5.7 °C 30.6in /  1036.2hPa Calm   3mph /  4.8km/h 76% 0in /  0.0mm 42 W/m2
14:26 49.5 °F /  9.7 °C 42.3 °F /  5.7 °C 30.6in /  1036.2hPa NNE 2.9mph /  4.7km/h 9mph /  14.5km/h 76% 0in /  0.0mm 40 W/m2
14:31 49.6 °F /  9.8 °C 42.1 °F /  5.6 °C 30.6in /  1035.9hPa NNW 4mph /  6.4km/h 4mph /  6.4km/h 75% 0in /  0.0mm 40 W/m2
14:36 49.6 °F /  9.8 °C 42.1 °F /  5.6 °C 30.6in /  1035.9hPa Calm   4mph /  6.4km/h 75% 0in /  0.0mm 39 W/m2
14:41 49.8 °F /  9.9 °C 42.3 °F /  5.7 °C 30.6in /  1035.9hPa NE 2mph /  3.2km/h 4mph /  6.4km/h 75% 0in /  0.0mm 39 W/m2
14:46 49.8 °F /  9.9 °C 41.5 °F /  5.3 °C 30.6in /  1035.9hPa NNE 4mph /  6.4km/h 6mph /  9.7km/h 73% 0in /  0.0mm 39 W/m2
14:51 49.8 °F /  9.9 °C 41.9 °F /  5.5 °C 30.6in /  1035.9hPa ESE 0.9mph /  1.4km/h 2mph /  3.2km/h 74% 0in /  0.0mm 39 W/m2
14:56 49.8 °F /  9.9 °C 41.5 °F /  5.3 °C 30.6in /  1035.9hPa NE 2mph /  3.2km/h 4mph /  6.4km/h 73% 0in /  0.0mm 37 W/m2
15:01 49.6 °F /  9.8 °C 41.7 °F /  5.4 °C 30.6in /  1035.6hPa NW 2mph /  3.2km/h 3mph /  4.8km/h 74% 0in /  0.0mm 37 W/m2
15:06 49.6 °F /  9.8 °C 41.7 °F /  5.4 °C 30.6in /  1035.6hPa WNW 0.9mph /  1.4km/h 3mph /  4.8km/h 74% 0in /  0.0mm 35 W/m2
15:11 49.8 °F /  9.9 °C 41.9 °F /  5.5 °C 30.6in /  1035.6hPa ENE 4.9mph /  7.9km/h 6mph /  9.7km/h 74% 0in /  0.0mm 35 W/m2
15:16 49.8 °F /  9.9 °C 41.5 °F /  5.3 °C 30.6in /  1035.6hPa Calm   3mph /  4.8km/h 73% 0in /  0.0mm 33 W/m2
15:21 49.8 °F /  9.9 °C 41.5 °F /  5.3 °C 30.6in /  1035.6hPa NNW 2.9mph /  4.7km/h 3mph /  4.8km/h 73% 0in /  0.0mm 33 W/m2
15:26 49.8 °F /  9.9 °C 41.5 °F /  5.3 °C 30.6in /  1035.6hPa ENE 0.9mph /  1.4km/h 2mph /  3.2km/h 73% 0in /  0.0mm 32 W/m2
15:31 49.8 °F /  9.9 °C 41.5 °F /  5.3 °C 30.6in /  1035.6hPa Calm   1mph /  1.6km/h 73% 0in /  0.0mm 32 W/m2
15:36 49.8 °F /  9.9 °C 41.2 °F /  5.1 °C 30.6in /  1035.6hPa North 2.9mph /  4.7km/h 3mph /  4.8km/h 72% 0in /  0.0mm 30 W/m2
15:41 49.6 °F /  9.8 °C 41 °F /  5 °C 30.6in /  1035.6hPa SSE 0.9mph /  1.4km/h 3mph /  4.8km/h 72% 0in /  0.0mm 30 W/m2
15:46 49.6 °F /  9.8 °C 41 °F /  5 °C 30.6in /  1035.6hPa East 2mph /  3.2km/h 2mph /  3.2km/h 72% 0in /  0.0mm 28 W/m2
15:51 49.5 °F /  9.7 °C 41.2 °F /  5.1 °C 30.6in /  1035.6hPa East 0.9mph /  1.4km/h 2mph /  3.2km/h 73% 0in /  0.0mm 28 W/m2
15:56 49.5 °F /  9.7 °C 41.2 °F /  5.1 °C 30.6in /  1035.6hPa WNW 2mph /  3.2km/h 3mph /  4.8km/h 73% 0in /  0.0mm 26 W/m2
16:01 49.3 °F /  9.6 °C 41.4 °F /  5.2 °C 30.6in /  1035.6hPa North 0.9mph /  1.4km/h 3mph /  4.8km/h 74% 0in /  0.0mm 26 W/m2
16:06 48.9 °F /  9.4 °C 41 °F /  5 °C 30.6in /  1035.6hPa Calm   4mph /  6.4km/h 74% 0in /  0.0mm 26 W/m2
16:11 48.9 °F /  9.4 °C 41.4 °F /  5.2 °C 30.6in /  1035.6hPa Calm   1mph /  1.6km/h 75% 0in /  0.0mm 25 W/m2
16:16 48.7 °F /  9.3 °C 41.2 °F /  5.1 °C 30.6in /  1035.6hPa NNW 0.9mph /  1.4km/h 2mph /  3.2km/h 75% 0in /  0.0mm 23 W/m2
16:21 48.7 °F /  9.3 °C 41.2 °F /  5.1 °C 30.6in /  1035.6hPa NW 0.9mph /  1.4km/h 3mph /  4.8km/h 75% 0in /  0.0mm 23 W/m2
16:26 48.7 °F /  9.3 °C 41.2 °F /  5.1 °C 30.6in /  1035.6hPa WNW 0.9mph /  1.4km/h 2mph /  3.2km/h 75% 0in /  0.0mm 21 W/m2
16:31 48.6 °F /  9.2 °C 41.4 °F /  5.2 °C 30.6in /  1035.6hPa Calm   3mph /  4.8km/h 76% 0in /  0.0mm 19 W/m2
16:36 48.4 °F /  9.1 °C 41.2 °F /  5.1 °C 30.6in /  1035.6hPa Calm   1mph /  1.6km/h 76% 0in /  0.0mm 18 W/m2
16:41 48.2 °F /  9 °C 41 °F /  5 °C 30.6in /  1035.6hPa NE 0.9mph /  1.4km/h 3mph /  4.8km/h 76% 0in /  0.0mm 16 W/m2
16:46 48 °F /  8.9 °C 41.2 °F /  5.1 °C 30.6in /  1035.6hPa Calm   2mph /  3.2km/h 77% 0in /  0.0mm 14 W/m2
16:51 47.8 °F /  8.8 °C 41.4 °F /  5.2 °C 30.6in /  1035.6hPa South 0.9mph /  1.4km/h 4mph /  6.4km/h 78% 0in /  0.0mm 12 W/m2
16:56 47.5 °F /  8.6 °C 41 °F /  5 °C 30.6in /  1035.6hPa NW 0.9mph /  1.4km/h 4mph /  6.4km/h 78% 0in /  0.0mm 11 W/m2
17:01 47.3 °F /  8.5 °C 40.8 °F /  4.9 °C 30.6in /  1035.6hPa Calm   2mph /  3.2km/h 78% 0in /  0.0mm 7 W/m2
17:06 46.9 °F /  8.3 °C 40.8 °F /  4.9 °C 30.6in /  1035.6hPa Calm   4mph /  6.4km/h 79% 0in /  0.0mm 5 W/m2
17:11 46.8 °F /  8.2 °C 40.6 °F /  4.8 °C 30.6in /  1035.6hPa Calm   1mph /  1.6km/h 79% 0in /  0.0mm 0 W/m2
17:16 46.6 °F /  8.1 °C 40.8 °F /  4.9 °C 30.6in /  1035.6hPa Calm     80% 0in /  0.0mm 0 W/m2
17:21 46.2 °F /  7.9 °C 40.5 °F /  4.7 °C 30.6in /  1035.6hPa Calm     80% 0in /  0.0mm 0 W/m2
17:26 45.9 °F /  7.7 °C 40.3 °F /  4.6 °C 30.6in /  1035.6hPa Calm   1mph /  1.6km/h 81% 0in /  0.0mm 0 W/m2
17:31 45.7 °F /  7.6 °C 40.1 °F /  4.5 °C 30.6in /  1035.6hPa NW 0.9mph /  1.4km/h 1mph /  1.6km/h 81% 0in /  0.0mm 0 W/m2
17:36 45.3 °F /  7.4 °C 40.1 °F /  4.5 °C 30.6in /  1035.6hPa Calm   1mph /  1.6km/h 82% 0in /  0.0mm 0 W/m2
17:41 45.1 °F /  7.3 °C 40.3 °F /  4.6 °C 30.6in /  1035.6hPa Calm   1mph /  1.6km/h 83% 0in /  0.0mm 0 W/m2
17:46 45 °F /  7.2 °C 40.1 °F /  4.5 °C 30.6in /  1035.6hPa SSE 0.9mph /  1.4km/h 1mph /  1.6km/h 83% 0in /  0.0mm 0 W/m2
17:51 44.8 °F /  7.1 °C 39.9 °F /  4.4 °C 30.6in /  1035.6hPa Calm   4mph /  6.4km/h 83% 0in /  0.0mm 0 W/m2
17:56 44.6 °F /  7 °C 40.1 °F /  4.5 °C 30.6in /  1035.2hPa East 0.9mph /  1.4km/h 2mph /  3.2km/h 84% 0in /  0.0mm 0 W/m2
18:01 44.6 °F /  7 °C 40.1 °F /  4.5 °C 30.6in /  1035.6hPa East 2mph /  3.2km/h 2mph /  3.2km/h 84% 0in /  0.0mm 0 W/m2
18:06 44.4 °F /  6.9 °C 39.9 °F /  4.4 °C 30.6in /  1035.2hPa Calm   1mph /  1.6km/h 84% 0in /  0.0mm 0 W/m2
18:11 44.2 °F /  6.8 °C 39.7 °F /  4.3 °C 30.6in /  1035.6hPa Calm   2mph /  3.2km/h 84% 0in /  0.0mm 0 W/m2
18:16 44.1 °F /  6.7 °C 39.9 °F /  4.4 °C 30.6in /  1035.6hPa Calm   1mph /  1.6km/h 85% 0in /  0.0mm 0 W/m2
18:21 43.9 °F /  6.6 °C 39.7 °F /  4.3 °C 30.6in /  1035.6hPa Calm     85% 0in /  0.0mm 0 W/m2
18:26 43.7 °F /  6.5 °C 39.7 °F /  4.3 °C 30.6in /  1035.6hPa Calm   1mph /  1.6km/h 86% 0in /  0.0mm 0 W/m2
18:31 43.3 °F /  6.3 °C 39.4 °F /  4.1 °C 30.6in /  1035.6hPa Calm     86% 0in /  0.0mm 0 W/m2
18:36 43.2 °F /  6.2 °C 39.2 °F /  4 °C 30.6in /  1035.6hPa Calm     86% 0in /  0.0mm 0 W/m2
18:41 43 °F /  6.1 °C 39.4 °F /  4.1 °C 30.6in /  1035.6hPa Calm   2mph /  3.2km/h 87% 0in /  0.0mm 0 W/m2
18:46 42.6 °F /  5.9 °C 39 °F /  3.9 °C 30.6in /  1035.6hPa Calm     87% 0in /  0.0mm 0 W/m2
18:51 42.4 °F /  5.8 °C 38.8 °F /  3.8 °C 30.6in /  1035.6hPa Calm   2mph /  3.2km/h 87% 0in /  0.0mm 0 W/m2
18:56 42.3 °F /  5.7 °C 39 °F /  3.9 °C 30.6in /  1035.6hPa SSE 0.9mph /  1.4km/h 2mph /  3.2km/h 88% 0in /  0.0mm 0 W/m2
19:01 42.1 °F /  5.6 °C 38.8 °F /  3.8 °C 30.6in /  1035.6hPa Calm   1mph /  1.6km/h 88% 0in /  0.0mm 0 W/m2
19:06 41.7 °F /  5.4 °C 38.7 °F /  3.7 °C 30.6in /  1035.6hPa Calm     89% 0in /  0.0mm 0 W/m2
19:11 41.5 °F /  5.3 °C 38.5 °F /  3.6 °C 30.6in /  1035.6hPa Calm     89% 0in /  0.0mm 0 W/m2
19:16 41.4 °F /  5.2 °C 38.3 °F /  3.5 °C 30.6in /  1035.6hPa Calm     89% 0in /  0.0mm 0 W/m2
19:21 41.2 °F /  5.1 °C 38.1 °F /  3.4 °C 30.6in /  1035.6hPa Calm   2mph /  3.2km/h 89% 0in /  0.0mm 0 W/m2
19:26 40.8 °F /  4.9 °C 37.8 °F /  3.2 °C 30.6in /  1035.6hPa SSE 0.9mph /  1.4km/h 1mph /  1.6km/h 89% 0in /  0.0mm 0 W/m2
19:31 40.6 °F /  4.8 °C 37.9 °F /  3.3 °C 30.6in /  1035.6hPa SSE 0.9mph /  1.4km/h 2mph /  3.2km/h 90% 0in /  0.0mm 0 W/m2
19:36 40.5 °F /  4.7 °C 37.8 °F /  3.2 °C 30.6in /  1035.6hPa Calm   2mph /  3.2km/h 90% 0in /  0.0mm 0 W/m2
19:41 40.3 °F /  4.6 °C 37.6 °F /  3.1 °C 30.6in /  1035.6hPa Calm     90% 0in /  0.0mm 0 W/m2
19:46 40.1 °F /  4.5 °C 37.4 °F /  3 °C 30.6in /  1035.6hPa SSE 0.9mph /  1.4km/h 1mph /  1.6km/h 90% 0in /  0.0mm 0 W/m2
19:51 39.9 °F /  4.4 °C 37.2 °F /  2.9 °C 30.6in /  1035.6hPa Calm   1mph /  1.6km/h 90% 0in /  0.0mm 0 W/m2
19:56 39.7 °F /  4.3 °C 37.4 °F /  3 °C 30.6in /  1035.6hPa Calm   1mph /  1.6km/h 91% 0in /  0.0mm 0 W/m2
20:01 39.7 °F /  4.3 °C 37.4 °F /  3 °C 30.6in /  1035.6hPa Calm     91% 0in /  0.0mm 0 W/m2
20:06 39.6 °F /  4.2 °C 37.2 °F /  2.9 °C 30.6in /  1035.6hPa Calm   1mph /  1.6km/h 91% 0in /  0.0mm 0 W/m2
20:11 39.4 °F /  4.1 °C 37 °F /  2.8 °C 30.6in /  1035.6hPa SE 2mph /  3.2km/h 2mph /  3.2km/h 91% 0in /  0.0mm 0 W/m2
20:16 39.4 °F /  4.1 °C 37.2 °F /  2.9 °C 30.6in /  1035.6hPa Calm   2mph /  3.2km/h 92% 0in /  0.0mm 0 W/m2
20:21 39 °F /  3.9 °C 36.9 °F /  2.7 °C 30.6in /  1035.6hPa Calm   1mph /  1.6km/h 92% 0in /  0.0mm 0 W/m2
20:26 39 °F /  3.9 °C 36.7 °F /  2.6 °C 30.6in /  1035.6hPa Calm   2mph /  3.2km/h 91% 0in /  0.0mm 0 W/m2
20:31 38.8 °F /  3.8 °C 36.7 °F /  2.6 °C 30.6in /  1035.6hPa Calm   1mph /  1.6km/h 92% 0in /  0.0mm 0 W/m2
20:36 38.8 °F /  3.8 °C 36.7 °F /  2.6 °C 30.6in /  1035.6hPa SE 2mph /  3.2km/h 2mph /  3.2km/h 92% 0in /  0.0mm 0 W/m2
20:41 38.8 °F /  3.8 °C 36.7 °F /  2.6 °C 30.6in /  1035.9hPa Calm   2mph /  3.2km/h 92% 0in /  0.0mm 0 W/m2
20:46 38.7 °F /  3.7 °C 36.5 °F /  2.5 °C 30.6in /  1035.9hPa South 0.9mph /  1.4km/h 2mph /  3.2km/h 92% 0in /  0.0mm 0 W/m2
20:51 38.7 °F /  3.7 °C 36.5 °F /  2.5 °C 30.6in /  1035.9hPa Calm     92% 0in /  0.0mm 0 W/m2
20:56 38.7 °F /  3.7 °C 36.9 °F /  2.7 °C 30.6in /  1035.9hPa South 0.9mph /  1.4km/h 1mph /  1.6km/h 93% 0in /  0.0mm 0 W/m2
21:01 38.7 °F /  3.7 °C 36.9 °F /  2.7 °C 30.6in /  1035.9hPa Calm     93% 0in /  0.0mm 0 W/m2
21:06 38.8 °F /  3.8 °C 37 °F /  2.8 °C 30.6in /  1035.9hPa Calm   1mph /  1.6km/h 93% 0in /  0.0mm 0 W/m2
21:11 38.8 °F /  3.8 °C 37 °F /  2.8 °C 30.6in /  1035.9hPa Calm     93% 0in /  0.0mm 0 W/m2
21:16 38.8 °F /  3.8 °C 37 °F /  2.8 °C 30.6in /  1035.6hPa Calm   1mph /  1.6km/h 93% 0in /  0.0mm 0 W/m2
21:21 38.8 °F /  3.8 °C 36.7 °F /  2.6 °C 30.6in /  1035.6hPa Calm   1mph /  1.6km/h 92% 0in /  0.0mm 0 W/m2
21:26 38.8 °F /  3.8 °C 36.7 °F /  2.6 °C 30.6in /  1035.6hPa NW 0.9mph /  1.4km/h 1mph /  1.6km/h 92% 0in /  0.0mm 0 W/m2
21:31 38.7 °F /  3.7 °C 36.5 °F /  2.5 °C 30.6in /  1035.6hPa Calm     92% 0in /  0.0mm 0 W/m2
21:36 38.5 °F /  3.6 °C 36.3 °F /  2.4 °C 30.6in /  1035.6hPa WSW 0.9mph /  1.4km/h 2mph /  3.2km/h 92% 0in /  0.0mm 0 W/m2
21:41 38.1 °F /  3.4 °C 36 °F /  2.2 °C 30.6in /  1035.6hPa Calm   2mph /  3.2km/h 92% 0in /  0.0mm 0 W/m2
21:46 37.9 °F /  3.3 °C 35.8 °F /  2.1 °C 30.6in /  1035.6hPa Calm   1mph /  1.6km/h 92% 0in /  0.0mm 0 W/m2
21:51 37.8 °F /  3.2 °C 35.6 °F /  2 °C 30.6in /  1035.6hPa Calm   2mph /  3.2km/h 92% 0in /  0.0mm 0 W/m2
21:56 37.6 °F /  3.1 °C 35.4 °F /  1.9 °C 30.6in /  1035.6hPa Calm   1mph /  1.6km/h 92% 0in /  0.0mm 0 W/m2
22:01 37.6 °F /  3.1 °C 35.4 °F /  1.9 °C 30.6in /  1035.6hPa Calm   1mph /  1.6km/h 92% 0in /  0.0mm 0 W/m2
22:06 37.4 °F /  3 °C 35.6 °F /  2 °C 30.6in /  1035.6hPa Calm   1mph /  1.6km/h 93% 0in /  0.0mm 0 W/m2
22:11 37.2 °F /  2.9 °C 35.4 °F /  1.9 °C 30.6in /  1035.6hPa WSW 0.9mph /  1.4km/h 2mph /  3.2km/h 93% 0in /  0.0mm 0 W/m2
22:17 37.2 °F /  2.9 °C 35.4 °F /  1.9 °C 30.6in /  1035.6hPa Calm     93% 0in /  0.0mm 0 W/m2
22:22 37.2 °F /  2.9 °C 35.4 °F /  1.9 °C 30.6in /  1035.6hPa Calm   2mph /  3.2km/h 93% 0in /  0.0mm 0 W/m2
22:27 37 °F /  2.8 °C 35.2 °F /  1.8 °C 30.6in /  1035.2hPa Calm   1mph /  1.6km/h 93% 0in /  0.0mm 0 W/m2
22:32 37 °F /  2.8 °C 35.4 °F /  1.9 °C 30.6in /  1035.2hPa Calm     94% 0in /  0.0mm 0 W/m2
22:37 37.2 °F /  2.9 °C 35.6 °F /  2 °C 30.6in /  1035.2hPa WSW 0.9mph /  1.4km/h 1mph /  1.6km/h 94% 0in /  0.0mm 0 W/m2
22:42 37 °F /  2.8 °C 35.4 °F /  1.9 °C 30.6in /  1035.2hPa Calm   2mph /  3.2km/h 94% 0in /  0.0mm 0 W/m2
22:47 37 °F /  2.8 °C 35.4 °F /  1.9 °C 30.6in /  1035.2hPa Calm   2mph /  3.2km/h 94% 0in /  0.0mm 0 W/m2
22:52 37 °F /  2.8 °C 35.4 °F /  1.9 °C 30.6in /  1035.2hPa Calm   1mph /  1.6km/h 94% 0in /  0.0mm 0 W/m2
22:57 37 °F /  2.8 °C 35.4 °F /  1.9 °C 30.6in /  1035.2hPa Calm     94% 0in /  0.0mm 0 W/m2
23:02 37 °F /  2.8 °C 35.4 °F /  1.9 °C 30.6in /  1034.9hPa Calm     94% 0in /  0.0mm 0 W/m2
23:07 37.2 °F /  2.9 °C 35.6 °F /  2 °C 30.6in /  1034.9hPa Calm   1mph /  1.6km/h 94% 0in /  0.0mm 0 W/m2
23:12 37.2 °F /  2.9 °C 35.6 °F /  2 °C 30.6in /  1034.9hPa SW 2mph /  3.2km/h 2mph /  3.2km/h 94% 0in /  0.0mm 0 W/m2
23:17 37 °F /  2.8 °C 35.4 °F /  1.9 °C 30.6in /  1034.9hPa Calm     94% 0in /  0.0mm 0 W/m2
23:22 37 °F /  2.8 °C 35.4 °F /  1.9 °C 30.6in /  1034.9hPa Calm     94% 0in /  0.0mm 0 W/m2
23:27 37 °F /  2.8 °C 35.4 °F /  1.9 °C 30.6in /  1034.9hPa SW 2mph /  3.2km/h 2mph /  3.2km/h 94% 0in /  0.0mm 0 W/m2
23:32 37 °F /  2.8 °C 35.4 °F /  1.9 °C 30.6in /  1034.9hPa SW 0.9mph /  1.4km/h 2mph /  3.2km/h 94% 0in /  0.0mm 0 W/m2
23:37 37 °F /  2.8 °C 35.4 °F /  1.9 °C 30.6in /  1034.9hPa Calm     94% 0in /  0.0mm 0 W/m2
23:42 36.9 °F /  2.7 °C 35.2 °F /  1.8 °C 30.6in /  1034.9hPa SW 0.9mph /  1.4km/h 2mph /  3.2km/h 94% 0in /  0.0mm 0 W/m2
23:47 36.9 °F /  2.7 °C 35.2 °F /  1.8 °C 30.6in /  1034.9hPa Calm   1mph /  1.6km/h 94% 0in /  0.0mm 0 W/m2
23:52 36.9 °F /  2.7 °C 35.2 °F /  1.8 °C 30.6in /  1034.5hPa Calm   1mph /  1.6km/h 94% 0in /  0.0mm 0 W/m2
23:57 36.9 °F /  2.7 °C 35.2 °F /  1.8 °C 30.6in /  1034.9hPa SW 0.9mph /  1.4km/h 1mph /  1.6km/h 94% 0in /  0.0mm 0 W/m2
Juneau County Weather
Compliments of Weather Underground - 4 mb